sensor_id;sensor_type;location;lat;lon;timestamp;P1;durP1;ratioP1;P2;durP2;ratioP2
26977;SDS011;56314;48.088;11.642;2024-03-02T00:02:05;11.85;;;7.82;;
26977;SDS011;56314;48.088;11.642;2024-03-02T00:04:32;11.13;;;7.45;;
26977;SDS011;56314;48.088;11.642;2024-03-02T00:06:57;15.10;;;8.50;;
26977;SDS011;56314;48.088;11.642;2024-03-02T00:09:23;11.88;;;8.30;;
26977;SDS011;56314;48.088;11.642;2024-03-02T00:11:48;12.63;;;9.20;;
26977;SDS011;56314;48.088;11.642;2024-03-02T00:14:14;14.30;;;9.27;;
26977;SDS011;56314;48.088;11.642;2024-03-02T00:16:40;14.70;;;8.88;;
26977;SDS011;56314;48.088;11.642;2024-03-02T00:19:06;14.30;;;9.75;;
26977;SDS011;56314;48.088;11.642;2024-03-02T00:21:34;13.32;;;8.82;;
26977;SDS011;56314;48.088;11.642;2024-03-02T00:23:59;12.90;;;8.98;;
26977;SDS011;56314;48.088;11.642;2024-03-02T00:26:27;12.38;;;8.82;;
26977;SDS011;56314;48.088;11.642;2024-03-02T00:28:54;14.20;;;9.32;;
26977;SDS011;56314;48.088;11.642;2024-03-02T00:31:21;13.13;;;8.40;;
26977;SDS011;56314;48.088;11.642;2024-03-02T00:33:47;14.85;;;9.63;;
26977;SDS011;56314;48.088;11.642;2024-03-02T00:36:21;15.82;;;9.70;;
26977;SDS011;56314;48.088;11.642;2024-03-02T00:38:50;15.07;;;9.65;;
26977;SDS011;56314;48.088;11.642;2024-03-02T00:41:22;15.43;;;9.90;;
26977;SDS011;56314;48.088;11.642;2024-03-02T00:43:53;15.25;;;9.88;;
26977;SDS011;56314;48.088;11.642;2024-03-02T00:46:32;14.60;;;9.75;;
26977;SDS011;56314;48.088;11.642;2024-03-02T00:49:03;18.40;;;10.88;;
26977;SDS011;56314;48.088;11.642;2024-03-02T00:51:30;16.45;;;11.00;;
26977;SDS011;56314;48.088;11.642;2024-03-02T00:54:07;17.20;;;10.80;;
26977;SDS011;56314;48.088;11.642;2024-03-02T00:56:34;18.30;;;11.50;;
26977;SDS011;56314;48.088;11.642;2024-03-02T00:59:00;17.60;;;10.32;;
26977;SDS011;56314;48.088;11.642;2024-03-02T01:01:26;14.98;;;10.07;;
26977;SDS011;56314;48.088;11.642;2024-03-02T01:03:52;14.35;;;9.23;;
26977;SDS011;56314;48.088;11.642;2024-03-02T01:06:17;14.65;;;9.25;;
26977;SDS011;56314;48.088;11.642;2024-03-02T01:08:43;13.00;;;9.20;;
26977;SDS011;56314;48.088;11.642;2024-03-02T01:11:09;12.80;;;9.25;;
26977;SDS011;56314;48.088;11.642;2024-03-02T01:13:34;15.23;;;9.43;;
26977;SDS011;56314;48.088;11.642;2024-03-02T01:16:00;13.68;;;9.52;;
26977;SDS011;56314;48.088;11.642;2024-03-02T01:18:27;13.23;;;9.77;;
26977;SDS011;56314;48.088;11.642;2024-03-02T01:20:53;12.15;;;9.75;;
26977;SDS011;56314;48.088;11.642;2024-03-02T01:23:21;13.25;;;8.68;;
26977;SDS011;56314;48.088;11.642;2024-03-02T01:25:47;14.18;;;8.68;;
26977;SDS011;56314;48.088;11.642;2024-03-02T01:28:12;14.13;;;9.02;;
26977;SDS011;56314;48.088;11.642;2024-03-02T01:30:38;12.93;;;8.88;;
26977;SDS011;56314;48.088;11.642;2024-03-02T01:33:04;13.77;;;9.05;;
26977;SDS011;56314;48.088;11.642;2024-03-02T01:35:30;16.23;;;9.30;;
26977;SDS011;56314;48.088;11.642;2024-03-02T01:37:56;13.52;;;8.30;;
26977;SDS011;56314;48.088;11.642;2024-03-02T01:40:21;11.15;;;7.97;;
26977;SDS011;56314;48.088;11.642;2024-03-02T01:42:51;11.65;;;8.68;;
26977;SDS011;56314;48.088;11.642;2024-03-02T01:45:16;10.27;;;7.40;;
26977;SDS011;56314;48.088;11.642;2024-03-02T01:47:41;12.23;;;7.97;;
26977;SDS011;56314;48.088;11.642;2024-03-02T01:50:07;13.30;;;8.98;;
26977;SDS011;56314;48.088;11.642;2024-03-02T01:52:33;10.23;;;7.45;;
26977;SDS011;56314;48.088;11.642;2024-03-02T01:54:58;15.68;;;8.43;;
26977;SDS011;56314;48.088;11.642;2024-03-02T01:57:24;11.25;;;8.43;;
26977;SDS011;56314;48.088;11.642;2024-03-02T01:59:49;11.32;;;7.43;;
26977;SDS011;56314;48.088;11.642;2024-03-02T02:02:16;11.52;;;8.27;;
26977;SDS011;56314;48.088;11.642;2024-03-02T02:04:41;13.10;;;8.60;;
26977;SDS011;56314;48.088;11.642;2024-03-02T02:07:07;11.63;;;8.40;;
26977;SDS011;56314;48.088;11.642;2024-03-02T02:09:32;14.27;;;8.35;;
26977;SDS011;56314;48.088;11.642;2024-03-02T02:11:58;14.30;;;8.00;;
26977;SDS011;56314;48.088;11.642;2024-03-02T02:14:24;12.60;;;9.02;;
26977;SDS011;56314;48.088;11.642;2024-03-02T02:16:50;12.15;;;8.52;;
26977;SDS011;56314;48.088;11.642;2024-03-02T02:19:15;15.23;;;9.07;;
26977;SDS011;56314;48.088;11.642;2024-03-02T02:21:43;12.85;;;8.27;;
26977;SDS011;56314;48.088;11.642;2024-03-02T02:24:09;11.35;;;8.30;;
26977;SDS011;56314;48.088;11.642;2024-03-02T02:26:34;15.32;;;9.48;;
26977;SDS011;56314;48.088;11.642;2024-03-02T02:29:00;11.77;;;8.65;;
26977;SDS011;56314;48.088;11.642;2024-03-02T02:31:25;12.75;;;8.40;;
26977;SDS011;56314;48.088;11.642;2024-03-02T02:33:51;13.85;;;8.70;;
26977;SDS011;56314;48.088;11.642;2024-03-02T02:36:16;13.40;;;8.82;;
26977;SDS011;56314;48.088;11.642;2024-03-02T02:38:42;11.55;;;8.25;;
26977;SDS011;56314;48.088;11.642;2024-03-02T02:41:11;11.88;;;8.00;;
26977;SDS011;56314;48.088;11.642;2024-03-02T02:43:37;13.27;;;8.35;;
26977;SDS011;56314;48.088;11.642;2024-03-02T02:46:04;12.32;;;8.25;;
26977;SDS011;56314;48.088;11.642;2024-03-02T02:48:30;13.98;;;8.20;;
26977;SDS011;56314;48.088;11.642;2024-03-02T02:50:55;9.90;;;7.47;;
26977;SDS011;56314;48.088;11.642;2024-03-02T02:53:21;14.23;;;8.48;;
26977;SDS011;56314;48.088;11.642;2024-03-02T02:55:46;11.38;;;8.55;;
26977;SDS011;56314;48.088;11.642;2024-03-02T02:58:12;13.38;;;8.90;;
26977;SDS011;56314;48.088;11.642;2024-03-02T03:00:38;13.30;;;9.25;;
26977;SDS011;56314;48.088;11.642;2024-03-02T03:03:03;15.80;;;9.77;;
26977;SDS011;56314;48.088;11.642;2024-03-02T03:05:29;16.90;;;9.48;;
26977;SDS011;56314;48.088;11.642;2024-03-02T03:07:54;12.27;;;8.98;;
26977;SDS011;56314;48.088;11.642;2024-03-02T03:10:20;13.82;;;9.13;;
26977;SDS011;56314;48.088;11.642;2024-03-02T03:12:48;12.57;;;9.00;;
26977;SDS011;56314;48.088;11.642;2024-03-02T03:15:14;12.05;;;8.55;;
26977;SDS011;56314;48.088;11.642;2024-03-02T03:17:41;14.77;;;8.68;;
26977;SDS011;56314;48.088;11.642;2024-03-02T03:20:06;15.57;;;10.43;;
26977;SDS011;56314;48.088;11.642;2024-03-02T03:22:35;14.13;;;10.00;;
26977;SDS011;56314;48.088;11.642;2024-03-02T03:25:00;17.52;;;9.40;;
26977;SDS011;56314;48.088;11.642;2024-03-02T03:27:26;13.23;;;9.50;;
26977;SDS011;56314;48.088;11.642;2024-03-02T03:29:51;13.48;;;8.77;;
26977;SDS011;56314;48.088;11.642;2024-03-02T03:32:17;13.15;;;9.23;;
26977;SDS011;56314;48.088;11.642;2024-03-02T03:34:42;12.20;;;9.45;;
26977;SDS011;56314;48.088;11.642;2024-03-02T03:37:08;14.38;;;9.40;;
26977;SDS011;56314;48.088;11.642;2024-03-02T03:39:34;14.35;;;9.93;;
26977;SDS011;56314;48.088;11.642;2024-03-02T03:42:01;13.68;;;9.45;;
26977;SDS011;56314;48.088;11.642;2024-03-02T03:44:26;18.42;;;10.95;;
26977;SDS011;56314;48.088;11.642;2024-03-02T03:46:51;13.50;;;9.98;;
26977;SDS011;56314;48.088;11.642;2024-03-02T03:49:17;17.08;;;10.00;;
26977;SDS011;56314;48.088;11.642;2024-03-02T03:51:43;13.35;;;10.52;;
26977;SDS011;56314;48.088;11.642;2024-03-02T03:54:08;15.30;;;9.82;;
26977;SDS011;56314;48.088;11.642;2024-03-02T03:56:36;12.57;;;9.65;;
26977;SDS011;56314;48.088;11.642;2024-03-02T03:59:01;16.20;;;10.77;;
26977;SDS011;56314;48.088;11.642;2024-03-02T04:01:27;16.52;;;9.52;;
26977;SDS011;56314;48.088;11.642;2024-03-02T04:03:52;16.80;;;10.63;;
26977;SDS011;56314;48.088;11.642;2024-03-02T04:06:17;14.43;;;10.27;;
26977;SDS011;56314;48.088;11.642;2024-03-02T04:08:43;13.55;;;9.55;;
26977;SDS011;56314;48.088;11.642;2024-03-02T04:11:08;15.60;;;10.95;;
26977;SDS011;56314;48.088;11.642;2024-03-02T04:13:34;15.35;;;10.52;;
26977;SDS011;56314;48.088;11.642;2024-03-02T04:15:59;19.92;;;11.77;;
26977;SDS011;56314;48.088;11.642;2024-03-02T04:18:24;16.55;;;11.07;;
26977;SDS011;56314;48.088;11.642;2024-03-02T04:20:50;16.17;;;11.15;;
26977;SDS011;56314;48.088;11.642;2024-03-02T04:23:15;15.88;;;11.82;;
26977;SDS011;56314;48.088;11.642;2024-03-02T04:25:41;16.02;;;10.35;;
26977;SDS011;56314;48.088;11.642;2024-03-02T04:28:06;17.25;;;11.20;;
26977;SDS011;56314;48.088;11.642;2024-03-02T04:30:31;22.35;;;13.07;;
26977;SDS011;56314;48.088;11.642;2024-03-02T04:32:57;18.48;;;11.93;;
26977;SDS011;56314;48.088;11.642;2024-03-02T04:35:22;15.07;;;10.77;;
26977;SDS011;56314;48.088;11.642;2024-03-02T04:37:48;20.08;;;11.23;;
26977;SDS011;56314;48.088;11.642;2024-03-02T04:40:13;18.95;;;12.60;;
26977;SDS011;56314;48.088;11.642;2024-03-02T04:42:39;21.33;;;12.23;;
26977;SDS011;56314;48.088;11.642;2024-03-02T04:45:05;18.35;;;11.80;;
26977;SDS011;56314;48.088;11.642;2024-03-02T04:47:31;22.20;;;13.45;;
26977;SDS011;56314;48.088;11.642;2024-03-02T04:49:56;15.98;;;11.02;;
26977;SDS011;56314;48.088;11.642;2024-03-02T04:52:21;18.48;;;11.88;;
26977;SDS011;56314;48.088;11.642;2024-03-02T04:54:47;19.15;;;11.07;;
26977;SDS011;56314;48.088;11.642;2024-03-02T04:57:30;17.23;;;10.93;;
26977;SDS011;56314;48.088;11.642;2024-03-02T04:59:56;18.95;;;11.90;;
26977;SDS011;56314;48.088;11.642;2024-03-02T05:02:21;16.58;;;11.32;;
26977;SDS011;56314;48.088;11.642;2024-03-02T05:04:46;16.58;;;11.13;;
26977;SDS011;56314;48.088;11.642;2024-03-02T05:07:13;16.40;;;12.02;;
26977;SDS011;56314;48.088;11.642;2024-03-02T05:09:39;19.73;;;12.85;;
26977;SDS011;56314;48.088;11.642;2024-03-02T05:12:05;18.77;;;11.77;;
26977;SDS011;56314;48.088;11.642;2024-03-02T05:14:47;17.20;;;12.13;;
26977;SDS011;56314;48.088;11.642;2024-03-02T05:17:13;21.40;;;12.48;;
26977;SDS011;56314;48.088;11.642;2024-03-02T05:19:38;19.92;;;12.80;;
26977;SDS011;56314;48.088;11.642;2024-03-02T05:22:04;18.98;;;13.57;;
26977;SDS011;56314;48.088;11.642;2024-03-02T05:24:29;17.92;;;11.45;;
26977;SDS011;56314;48.088;11.642;2024-03-02T05:26:54;19.42;;;11.98;;
26977;SDS011;56314;48.088;11.642;2024-03-02T05:29:20;17.30;;;10.77;;
26977;SDS011;56314;48.088;11.642;2024-03-02T05:31:46;22.02;;;12.18;;
26977;SDS011;56314;48.088;11.642;2024-03-02T05:34:11;17.08;;;11.52;;
26977;SDS011;56314;48.088;11.642;2024-03-02T05:36:37;16.55;;;10.68;;
26977;SDS011;56314;48.088;11.642;2024-03-02T05:39:04;19.95;;;12.63;;
26977;SDS011;56314;48.088;11.642;2024-03-02T05:41:31;19.20;;;11.40;;
26977;SDS011;56314;48.088;11.642;2024-03-02T05:43:56;18.08;;;11.23;;
26977;SDS011;56314;48.088;11.642;2024-03-02T05:46:21;21.40;;;11.68;;
26977;SDS011;56314;48.088;11.642;2024-03-02T05:48:47;20.85;;;13.18;;
26977;SDS011;56314;48.088;11.642;2024-03-02T05:51:12;16.88;;;12.25;;
26977;SDS011;56314;48.088;11.642;2024-03-02T05:53:38;19.67;;;12.13;;
26977;SDS011;56314;48.088;11.642;2024-03-02T05:56:04;17.45;;;11.40;;
26977;SDS011;56314;48.088;11.642;2024-03-02T05:58:30;18.75;;;12.18;;
26977;SDS011;56314;48.088;11.642;2024-03-02T06:01:14;21.50;;;12.90;;
26977;SDS011;56314;48.088;11.642;2024-03-02T06:03:39;20.58;;;12.02;;
26977;SDS011;56314;48.088;11.642;2024-03-02T06:06:05;20.70;;;12.93;;
26977;SDS011;56314;48.088;11.642;2024-03-02T06:08:31;19.10;;;12.60;;
26977;SDS011;56314;48.088;11.642;2024-03-02T06:10:56;19.73;;;12.38;;
26977;SDS011;56314;48.088;11.642;2024-03-02T06:13:22;21.40;;;12.45;;
26977;SDS011;56314;48.088;11.642;2024-03-02T06:15:48;20.27;;;12.82;;
26977;SDS011;56314;48.088;11.642;2024-03-02T06:18:13;20.08;;;12.50;;
26977;SDS011;56314;48.088;11.642;2024-03-02T06:20:38;17.98;;;12.30;;
26977;SDS011;56314;48.088;11.642;2024-03-02T06:23:04;21.55;;;12.20;;
26977;SDS011;56314;48.088;11.642;2024-03-02T06:25:30;21.23;;;13.60;;
26977;SDS011;56314;48.088;11.642;2024-03-02T06:27:55;19.80;;;12.60;;
26977;SDS011;56314;48.088;11.642;2024-03-02T06:30:20;19.40;;;12.75;;
26977;SDS011;56314;48.088;11.642;2024-03-02T06:32:46;23.55;;;14.45;;
26977;SDS011;56314;48.088;11.642;2024-03-02T06:35:11;19.80;;;13.18;;
26977;SDS011;56314;48.088;11.642;2024-03-02T06:37:38;21.42;;;14.10;;
26977;SDS011;56314;48.088;11.642;2024-03-02T06:40:04;25.48;;;15.05;;
26977;SDS011;56314;48.088;11.642;2024-03-02T06:42:32;25.65;;;14.57;;
26977;SDS011;56314;48.088;11.642;2024-03-02T06:44:58;23.75;;;14.48;;
26977;SDS011;56314;48.088;11.642;2024-03-02T06:47:24;30.52;;;18.35;;
26977;SDS011;56314;48.088;11.642;2024-03-02T06:49:49;27.13;;;15.13;;
26977;SDS011;56314;48.088;11.642;2024-03-02T06:52:16;25.15;;;15.35;;
26977;SDS011;56314;48.088;11.642;2024-03-02T06:54:41;22.20;;;14.00;;
26977;SDS011;56314;48.088;11.642;2024-03-02T06:57:07;21.75;;;13.98;;
26977;SDS011;56314;48.088;11.642;2024-03-02T06:59:32;21.77;;;12.43;;
26977;SDS011;56314;48.088;11.642;2024-03-02T07:01:58;22.35;;;13.55;;
26977;SDS011;56314;48.088;11.642;2024-03-02T07:04:24;22.63;;;13.40;;
26977;SDS011;56314;48.088;11.642;2024-03-02T07:06:49;21.30;;;14.30;;
26977;SDS011;56314;48.088;11.642;2024-03-02T07:09:14;21.77;;;14.05;;
26977;SDS011;56314;48.088;11.642;2024-03-02T07:11:40;20.58;;;12.90;;
26977;SDS011;56314;48.088;11.642;2024-03-02T07:14:05;24.65;;;14.88;;
26977;SDS011;56314;48.088;11.642;2024-03-02T07:16:31;24.75;;;14.52;;
26977;SDS011;56314;48.088;11.642;2024-03-02T07:18:58;20.98;;;14.43;;
26977;SDS011;56314;48.088;11.642;2024-03-02T07:21:24;26.75;;;15.38;;
26977;SDS011;56314;48.088;11.642;2024-03-02T07:23:49;26.83;;;15.23;;
26977;SDS011;56314;48.088;11.642;2024-03-02T07:26:15;28.70;;;15.77;;
26977;SDS011;56314;48.088;11.642;2024-03-02T07:28:43;23.13;;;14.73;;
26977;SDS011;56314;48.088;11.642;2024-03-02T07:31:09;23.48;;;14.50;;
26977;SDS011;56314;48.088;11.642;2024-03-02T07:33:35;23.60;;;14.57;;
26977;SDS011;56314;48.088;11.642;2024-03-02T07:36:00;26.15;;;15.63;;
26977;SDS011;56314;48.088;11.642;2024-03-02T07:38:26;27.92;;;15.68;;
26977;SDS011;56314;48.088;11.642;2024-03-02T07:40:53;26.23;;;15.77;;
26977;SDS011;56314;48.088;11.642;2024-03-02T07:43:19;30.08;;;15.25;;
26977;SDS011;56314;48.088;11.642;2024-03-02T07:45:44;25.77;;;15.15;;
26977;SDS011;56314;48.088;11.642;2024-03-02T07:48:10;23.90;;;14.25;;
26977;SDS011;56314;48.088;11.642;2024-03-02T07:50:35;26.75;;;15.02;;
26977;SDS011;56314;48.088;11.642;2024-03-02T07:53:02;25.98;;;15.55;;
26977;SDS011;56314;48.088;11.642;2024-03-02T07:55:28;26.75;;;14.85;;
26977;SDS011;56314;48.088;11.642;2024-03-02T07:57:54;24.98;;;14.32;;
26977;SDS011;56314;48.088;11.642;2024-03-02T08:00:20;25.80;;;15.15;;
26977;SDS011;56314;48.088;11.642;2024-03-02T08:02:45;25.50;;;15.38;;
26977;SDS011;56314;48.088;11.642;2024-03-02T08:05:11;26.42;;;14.07;;
26977;SDS011;56314;48.088;11.642;2024-03-02T08:07:37;23.65;;;13.63;;
26977;SDS011;56314;48.088;11.642;2024-03-02T08:10:02;24.73;;;13.13;;
26977;SDS011;56314;48.088;11.642;2024-03-02T08:12:28;22.90;;;13.00;;
26977;SDS011;56314;48.088;11.642;2024-03-02T08:14:53;22.58;;;13.98;;
26977;SDS011;56314;48.088;11.642;2024-03-02T08:17:19;21.92;;;12.73;;
26977;SDS011;56314;48.088;11.642;2024-03-02T08:19:44;22.17;;;12.40;;
26977;SDS011;56314;48.088;11.642;2024-03-02T08:22:10;19.95;;;12.63;;
26977;SDS011;56314;48.088;11.642;2024-03-02T08:24:35;21.95;;;12.63;;
26977;SDS011;56314;48.088;11.642;2024-03-02T08:27:01;18.30;;;11.27;;
26977;SDS011;56314;48.088;11.642;2024-03-02T08:29:26;18.20;;;12.05;;
26977;SDS011;56314;48.088;11.642;2024-03-02T08:31:52;18.45;;;11.32;;
26977;SDS011;56314;48.088;11.642;2024-03-02T08:34:18;19.45;;;11.30;;
26977;SDS011;56314;48.088;11.642;2024-03-02T08:36:43;19.15;;;11.95;;
26977;SDS011;56314;48.088;11.642;2024-03-02T08:39:09;20.45;;;12.90;;
26977;SDS011;56314;48.088;11.642;2024-03-02T08:41:46;18.42;;;12.55;;
26977;SDS011;56314;48.088;11.642;2024-03-02T08:44:12;20.35;;;12.57;;
26977;SDS011;56314;48.088;11.642;2024-03-02T08:46:39;18.23;;;12.20;;
26977;SDS011;56314;48.088;11.642;2024-03-02T08:49:05;21.83;;;12.80;;
26977;SDS011;56314;48.088;11.642;2024-03-02T08:51:30;19.65;;;13.05;;
26977;SDS011;56314;48.088;11.642;2024-03-02T08:53:56;19.15;;;11.38;;
26977;SDS011;56314;48.088;11.642;2024-03-02T08:56:23;17.13;;;10.98;;
26977;SDS011;56314;48.088;11.642;2024-03-02T08:58:49;15.13;;;9.75;;
26977;SDS011;56314;48.088;11.642;2024-03-02T09:01:17;13.07;;;8.65;;
26977;SDS011;56314;48.088;11.642;2024-03-02T09:03:44;14.95;;;10.00;;
26977;SDS011;56314;48.088;11.642;2024-03-02T09:06:10;13.68;;;9.68;;
26977;SDS011;56314;48.088;11.642;2024-03-02T09:08:36;12.10;;;8.75;;
26977;SDS011;56314;48.088;11.642;2024-03-02T09:11:02;12.15;;;9.15;;
26977;SDS011;56314;48.088;11.642;2024-03-02T09:13:28;12.10;;;7.85;;
26977;SDS011;56314;48.088;11.642;2024-03-02T09:15:54;12.20;;;8.38;;
26977;SDS011;56314;48.088;11.642;2024-03-02T09:18:19;11.07;;;7.40;;
26977;SDS011;56314;48.088;11.642;2024-03-02T09:20:45;8.48;;;6.30;;
26977;SDS011;56314;48.088;11.642;2024-03-02T09:23:11;8.63;;;6.03;;
26977;SDS011;56314;48.088;11.642;2024-03-02T09:25:36;6.88;;;5.38;;
26977;SDS011;56314;48.088;11.642;2024-03-02T09:28:02;8.25;;;6.28;;
26977;SDS011;56314;48.088;11.642;2024-03-02T09:30:28;9.00;;;6.95;;
26977;SDS011;56314;48.088;11.642;2024-03-02T09:32:53;7.82;;;5.88;;
26977;SDS011;56314;48.088;11.642;2024-03-02T09:35:19;11.15;;;6.47;;
26977;SDS011;56314;48.088;11.642;2024-03-02T09:37:44;9.57;;;6.78;;
26977;SDS011;56314;48.088;11.642;2024-03-02T09:40:10;8.73;;;6.45;;
26977;SDS011;56314;48.088;11.642;2024-03-02T09:42:36;7.97;;;6.25;;
26977;SDS011;56314;48.088;11.642;2024-03-02T09:45:02;8.15;;;6.30;;
26977;SDS011;56314;48.088;11.642;2024-03-02T09:47:28;8.05;;;5.88;;
26977;SDS011;56314;48.088;11.642;2024-03-02T09:49:54;11.30;;;7.65;;
26977;SDS011;56314;48.088;11.642;2024-03-02T09:52:20;12.90;;;7.20;;
26977;SDS011;56314;48.088;11.642;2024-03-02T09:54:47;9.32;;;7.28;;
26977;SDS011;56314;48.088;11.642;2024-03-02T09:57:13;11.88;;;8.00;;
26977;SDS011;56314;48.088;11.642;2024-03-02T09:59:39;12.40;;;7.65;;
26977;SDS011;56314;48.088;11.642;2024-03-02T10:02:05;10.40;;;7.60;;
26977;SDS011;56314;48.088;11.642;2024-03-02T10:04:32;11.65;;;8.32;;
26977;SDS011;56314;48.088;11.642;2024-03-02T10:07:14;13.00;;;8.25;;
26977;SDS011;56314;48.088;11.642;2024-03-02T10:09:44;12.27;;;7.75;;
26977;SDS011;56314;48.088;11.642;2024-03-02T10:12:12;11.75;;;8.85;;
26977;SDS011;56314;48.088;11.642;2024-03-02T10:14:39;11.43;;;8.05;;
26977;SDS011;56314;48.088;11.642;2024-03-02T10:17:06;10.55;;;7.60;;
26977;SDS011;56314;48.088;11.642;2024-03-02T10:19:32;11.93;;;7.13;;
26977;SDS011;56314;48.088;11.642;2024-03-02T10:21:59;12.73;;;7.75;;
26977;SDS011;56314;48.088;11.642;2024-03-02T10:24:26;9.65;;;6.90;;
26977;SDS011;56314;48.088;11.642;2024-03-02T10:26:51;11.40;;;7.90;;
26977;SDS011;56314;48.088;11.642;2024-03-02T10:29:17;11.05;;;7.13;;
26977;SDS011;56314;48.088;11.642;2024-03-02T10:31:44;8.07;;;5.53;;
26977;SDS011;56314;48.088;11.642;2024-03-02T10:34:13;9.43;;;6.70;;
26977;SDS011;56314;48.088;11.642;2024-03-02T10:36:41;10.00;;;6.30;;
26977;SDS011;56314;48.088;11.642;2024-03-02T10:39:08;11.93;;;7.15;;
26977;SDS011;56314;48.088;11.642;2024-03-02T10:41:35;10.73;;;6.78;;
26977;SDS011;56314;48.088;11.642;2024-03-02T10:44:01;10.98;;;7.05;;
26977;SDS011;56314;48.088;11.642;2024-03-02T10:46:28;9.90;;;6.93;;
26977;SDS011;56314;48.088;11.642;2024-03-02T10:48:59;12.25;;;7.75;;
26977;SDS011;56314;48.088;11.642;2024-03-02T10:51:29;9.50;;;6.93;;
26977;SDS011;56314;48.088;11.642;2024-03-02T10:53:59;10.27;;;7.45;;
26977;SDS011;56314;48.088;11.642;2024-03-02T10:56:35;11.95;;;7.85;;
26977;SDS011;56314;48.088;11.642;2024-03-02T10:59:06;13.45;;;7.65;;
26977;SDS011;56314;48.088;11.642;2024-03-02T11:01:45;8.82;;;7.07;;
26977;SDS011;56314;48.088;11.642;2024-03-02T11:04:12;10.63;;;7.72;;
26977;SDS011;56314;48.088;11.642;2024-03-02T11:06:40;11.85;;;6.80;;
26977;SDS011;56314;48.088;11.642;2024-03-02T11:09:13;10.82;;;7.32;;
26977;SDS011;56314;48.088;11.642;2024-03-02T11:11:42;11.27;;;7.63;;
26977;SDS011;56314;48.088;11.642;2024-03-02T11:14:13;10.60;;;7.40;;
26977;SDS011;56314;48.088;11.642;2024-03-02T11:16:41;10.95;;;7.20;;
26977;SDS011;56314;48.088;11.642;2024-03-02T11:19:13;14.23;;;8.32;;
26977;SDS011;56314;48.088;11.642;2024-03-02T11:21:40;11.07;;;6.95;;
26977;SDS011;56314;48.088;11.642;2024-03-02T11:26:46;12.65;;;7.30;;
26977;SDS011;56314;48.088;11.642;2024-03-02T11:32:04;11.77;;;6.90;;
26977;SDS011;56314;48.088;11.642;2024-03-02T11:34:44;8.48;;;5.32;;
26977;SDS011;56314;48.088;11.642;2024-03-02T11:37:17;8.45;;;5.55;;
26977;SDS011;56314;48.088;11.642;2024-03-02T11:39:46;9.00;;;5.60;;
26977;SDS011;56314;48.088;11.642;2024-03-02T11:42:14;10.75;;;5.85;;
26977;SDS011;56314;48.088;11.642;2024-03-02T11:44:49;9.02;;;6.38;;
26977;SDS011;56314;48.088;11.642;2024-03-02T11:47:16;8.23;;;5.32;;
26977;SDS011;56314;48.088;11.642;2024-03-02T11:49:46;8.48;;;5.25;;
26977;SDS011;56314;48.088;11.642;2024-03-02T11:52:15;7.05;;;4.88;;
26977;SDS011;56314;48.088;11.642;2024-03-02T11:54:43;7.43;;;5.15;;
26977;SDS011;56314;48.088;11.642;2024-03-02T11:57:14;7.55;;;4.97;;
26977;SDS011;56314;48.088;11.642;2024-03-02T11:59:41;8.38;;;5.97;;
26977;SDS011;56314;48.088;11.642;2024-03-02T12:02:07;12.00;;;6.35;;
26977;SDS011;56314;48.088;11.642;2024-03-02T12:04:40;12.30;;;7.20;;
26977;SDS011;56314;48.088;11.642;2024-03-02T12:07:06;12.50;;;6.88;;
26977;SDS011;56314;48.088;11.642;2024-03-02T12:09:31;10.25;;;5.97;;
26977;SDS011;56314;48.088;11.642;2024-03-02T12:12:06;10.88;;;7.18;;
26977;SDS011;56314;48.088;11.642;2024-03-02T12:14:33;13.32;;;7.30;;
26977;SDS011;56314;48.088;11.642;2024-03-02T12:17:00;11.48;;;7.07;;
26977;SDS011;56314;48.088;11.642;2024-03-02T12:19:26;11.68;;;7.32;;
26977;SDS011;56314;48.088;11.642;2024-03-02T12:21:52;8.32;;;5.80;;
26977;SDS011;56314;48.088;11.642;2024-03-02T12:24:20;9.07;;;6.15;;
26977;SDS011;56314;48.088;11.642;2024-03-02T12:26:46;12.32;;;5.88;;
26977;SDS011;56314;48.088;11.642;2024-03-02T12:29:13;9.18;;;5.20;;
26977;SDS011;56314;48.088;11.642;2024-03-02T12:31:40;15.75;;;10.18;;
26977;SDS011;56314;48.088;11.642;2024-03-02T12:34:05;9.65;;;5.28;;
26977;SDS011;56314;48.088;11.642;2024-03-02T12:36:36;9.75;;;4.53;;
26977;SDS011;56314;48.088;11.642;2024-03-02T12:39:03;9.00;;;4.93;;
26977;SDS011;56314;48.088;11.642;2024-03-02T12:41:28;6.90;;;4.60;;
26977;SDS011;56314;48.088;11.642;2024-03-02T12:43:54;7.25;;;4.85;;
26977;SDS011;56314;48.088;11.642;2024-03-02T12:46:19;7.80;;;4.80;;
26977;SDS011;56314;48.088;11.642;2024-03-02T12:48:45;8.15;;;5.15;;
26977;SDS011;56314;48.088;11.642;2024-03-02T12:51:10;7.75;;;4.57;;
26977;SDS011;56314;48.088;11.642;2024-03-02T12:53:36;11.45;;;5.78;;
26977;SDS011;56314;48.088;11.642;2024-03-02T12:56:01;8.55;;;4.53;;
26977;SDS011;56314;48.088;11.642;2024-03-02T12:58:27;8.52;;;4.95;;
26977;SDS011;56314;48.088;11.642;2024-03-02T13:01:07;8.98;;;4.15;;
26977;SDS011;56314;48.088;11.642;2024-03-02T13:03:40;6.72;;;4.43;;
26977;SDS011;56314;48.088;11.642;2024-03-02T13:06:06;4.95;;;3.28;;
26977;SDS011;56314;48.088;11.642;2024-03-02T13:08:32;3.25;;;2.88;;
26977;SDS011;56314;48.088;11.642;2024-03-02T13:10:58;6.35;;;4.25;;
26977;SDS011;56314;48.088;11.642;2024-03-02T13:13:24;6.50;;;5.07;;
26977;SDS011;56314;48.088;11.642;2024-03-02T13:15:49;11.02;;;5.63;;
26977;SDS011;56314;48.088;11.642;2024-03-02T13:18:14;8.88;;;6.03;;
26977;SDS011;56314;48.088;11.642;2024-03-02T13:20:42;9.18;;;5.60;;
26977;SDS011;56314;48.088;11.642;2024-03-02T13:23:08;7.90;;;4.75;;
26977;SDS011;56314;48.088;11.642;2024-03-02T13:25:33;6.40;;;4.20;;
26977;SDS011;56314;48.088;11.642;2024-03-02T13:27:59;5.95;;;3.67;;
26977;SDS011;56314;48.088;11.642;2024-03-02T13:30:25;6.80;;;4.38;;
26977;SDS011;56314;48.088;11.642;2024-03-02T13:32:50;7.22;;;5.10;;
26977;SDS011;56314;48.088;11.642;2024-03-02T13:35:16;10.55;;;6.35;;
26977;SDS011;56314;48.088;11.642;2024-03-02T13:37:41;10.68;;;5.85;;
26977;SDS011;56314;48.088;11.642;2024-03-02T13:40:07;12.60;;;7.03;;
26977;SDS011;56314;48.088;11.642;2024-03-02T13:42:38;11.90;;;7.40;;
26977;SDS011;56314;48.088;11.642;2024-03-02T13:45:04;14.55;;;7.78;;
26977;SDS011;56314;48.088;11.642;2024-03-02T13:47:30;16.35;;;8.60;;
26977;SDS011;56314;48.088;11.642;2024-03-02T13:49:56;11.68;;;6.88;;
26977;SDS011;56314;48.088;11.642;2024-03-02T13:52:21;12.90;;;7.85;;
26977;SDS011;56314;48.088;11.642;2024-03-02T13:54:47;12.82;;;7.78;;
26977;SDS011;56314;48.088;11.642;2024-03-02T13:57:13;16.30;;;8.48;;
26977;SDS011;56314;48.088;11.642;2024-03-02T13:59:39;14.75;;;8.27;;
26977;SDS011;56314;48.088;11.642;2024-03-02T14:02:05;11.05;;;6.45;;
26977;SDS011;56314;48.088;11.642;2024-03-02T14:04:34;11.35;;;6.47;;
26977;SDS011;56314;48.088;11.642;2024-03-02T14:07:00;12.88;;;6.68;;
26977;SDS011;56314;48.088;11.642;2024-03-02T14:09:27;12.85;;;6.53;;
26977;SDS011;56314;48.088;11.642;2024-03-02T14:11:53;9.63;;;6.10;;
26977;SDS011;56314;48.088;11.642;2024-03-02T14:14:21;9.88;;;5.57;;
26977;SDS011;56314;48.088;11.642;2024-03-02T14:16:47;10.52;;;5.78;;
26977;SDS011;56314;48.088;11.642;2024-03-02T14:19:13;10.30;;;6.40;;
26977;SDS011;56314;48.088;11.642;2024-03-02T14:21:41;12.20;;;6.90;;